<?xml version="1.0" encoding="UTF-8" standalone="no" ?>
<gpx xmlns="http://www.topografix.com/GPX/1/1" xmlns:xsi="http://www.w3.org/2001/XMLSchema-instance" xsi:schemaLocation="http://www.topografix.com/GPX/1/1 http://www.topografix.com/GPX/1/1/gpx.xsd" version="1.1" creator="VisuGPX - https://www.visugpx.com">
  <metadata>
    <name>Baure Manival Leeloo</name>
    <desc><![CDATA[Proposition de randonnée sympa au départ de Saint Ismeir 
Baure Manival Leeloo]]></desc>
  </metadata>
  <trk>
    <name><![CDATA[10-APR-16 05:04:46 PM]]></name>
    <trkseg>
      <trkpt lat="45.25373" lon="5.82426">
        <ele>430.81</ele>
        <time>2016-04-10T11:06:50Z</time>
      </trkpt>
      <trkpt lat="45.25375" lon="5.82426">
        <ele>430.81</ele>
        <time>2016-04-10T11:07:20Z</time>
      </trkpt>
      <trkpt lat="45.25377" lon="5.82425">
        <ele>430.81</ele>
        <time>2016-04-10T11:07:50Z</time>
      </trkpt>
      <trkpt lat="45.25377" lon="5.82424">
        <ele>430.81</ele>
        <time>2016-04-10T11:08:20Z</time>
      </trkpt>
      <trkpt lat="45.25377" lon="5.82424">
        <ele>431.29</ele>
        <time>2016-04-10T11:08:50Z</time>
      </trkpt>
      <trkpt lat="45.25376" lon="5.82423">
        <ele>431.29</ele>
        <time>2016-04-10T11:09:20Z</time>
      </trkpt>
      <trkpt lat="45.25377" lon="5.82423">
        <ele>431.29</ele>
        <time>2016-04-10T11:09:50Z</time>
      </trkpt>
      <trkpt lat="45.25377" lon="5.82424">
        <ele>431.29</ele>
        <time>2016-04-10T11:10:20Z</time>
      </trkpt>
      <trkpt lat="45.25378" lon="5.82425">
        <ele>431.77</ele>
        <time>2016-04-10T11:10:50Z</time>
      </trkpt>
      <trkpt lat="45.25378" lon="5.82424">
        <ele>431.77</ele>
        <time>2016-04-10T11:11:20Z</time>
      </trkpt>
      <trkpt lat="45.25377" lon="5.82424">
        <ele>432.25</ele>
        <time>2016-04-10T11:11:50Z</time>
      </trkpt>
      <trkpt lat="45.25377" lon="5.82422">
        <ele>432.25</ele>
        <time>2016-04-10T11:12:20Z</time>
      </trkpt>
      <trkpt lat="45.25376" lon="5.82423">
        <ele>432.73</ele>
        <time>2016-04-10T11:12:50Z</time>
      </trkpt>
      <trkpt lat="45.25375" lon="5.8242">
        <ele>431.77</ele>
        <time>2016-04-10T11:13:20Z</time>
      </trkpt>
      <trkpt lat="45.25374" lon="5.8242">
        <ele>432.25</ele>
        <time>2016-04-10T11:13:50Z</time>
      </trkpt>
      <trkpt lat="45.25372" lon="5.8242">
        <ele>432.25</ele>
        <time>2016-04-10T11:14:20Z</time>
      </trkpt>
      <trkpt lat="45.25372" lon="5.82421">
        <ele>432.73</ele>
        <time>2016-04-10T11:14:50Z</time>
      </trkpt>
      <trkpt lat="45.25371" lon="5.8242">
        <ele>432.73</ele>
        <time>2016-04-10T11:15:20Z</time>
      </trkpt>
      <trkpt lat="45.25369" lon="5.82421">
        <ele>433.21</ele>
        <time>2016-04-10T11:15:50Z</time>
      </trkpt>
      <trkpt lat="45.2537" lon="5.82417">
        <ele>433.69</ele>
        <time>2016-04-10T11:16:20Z</time>
      </trkpt>
      <trkpt lat="45.25383" lon="5.82434">
        <ele>433.69</ele>
        <time>2016-04-10T11:16:50Z</time>
      </trkpt>
      <trkpt lat="45.25513" lon="5.826">
        <ele>426</ele>
        <time>2016-04-10T11:17:20Z</time>
      </trkpt>
      <trkpt lat="45.25702" lon="5.82885">
        <ele>409.18</ele>
        <time>2016-04-10T11:17:50Z</time>
      </trkpt>
      <trkpt lat="45.25801" lon="5.83029">
        <ele>413.5</ele>
        <time>2016-04-10T11:18:20Z</time>
      </trkpt>
      <trkpt lat="45.25885" lon="5.8309">
        <ele>419.75</ele>
        <time>2016-04-10T11:18:50Z</time>
      </trkpt>
      <trkpt lat="45.25967" lon="5.83169">
        <ele>426.96</ele>
        <time>2016-04-10T11:19:20Z</time>
      </trkpt>
      <trkpt lat="45.2607" lon="5.83187">
        <ele>430.81</ele>
        <time>2016-04-10T11:19:50Z</time>
      </trkpt>
      <trkpt lat="45.26097" lon="5.83196">
        <ele>433.69</ele>
        <time>2016-04-10T11:20:20Z</time>
      </trkpt>
      <trkpt lat="45.26168" lon="5.83195">
        <ele>441.86</ele>
        <time>2016-04-10T11:20:50Z</time>
      </trkpt>
      <trkpt lat="45.26237" lon="5.83241">
        <ele>451.48</ele>
        <time>2016-04-10T11:21:20Z</time>
      </trkpt>
      <trkpt lat="45.26262" lon="5.83387">
        <ele>454.36</ele>
        <time>2016-04-10T11:21:50Z</time>
      </trkpt>
      <trkpt lat="45.26298" lon="5.83566">
        <ele>455.8</ele>
        <time>2016-04-10T11:22:20Z</time>
      </trkpt>
      <trkpt lat="45.2637" lon="5.83568">
        <ele>464.93</ele>
        <time>2016-04-10T11:22:50Z</time>
      </trkpt>
      <trkpt lat="45.26309" lon="5.83647">
        <ele>454.84</ele>
        <time>2016-04-10T11:23:20Z</time>
      </trkpt>
      <trkpt lat="45.26358" lon="5.83784">
        <ele>457.24</ele>
        <time>2016-04-10T11:23:50Z</time>
      </trkpt>
      <trkpt lat="45.26404" lon="5.83869">
        <ele>458.21</ele>
        <time>2016-04-10T11:24:20Z</time>
      </trkpt>
      <trkpt lat="45.26491" lon="5.84012">
        <ele>462.53</ele>
        <time>2016-04-10T11:24:50Z</time>
      </trkpt>
      <trkpt lat="45.26597" lon="5.8407">
        <ele>468.78</ele>
        <time>2016-04-10T11:25:20Z</time>
      </trkpt>
      <trkpt lat="45.26699" lon="5.84092">
        <ele>478.39</ele>
        <time>2016-04-10T11:25:50Z</time>
      </trkpt>
      <trkpt lat="45.26791" lon="5.84113">
        <ele>487.53</ele>
        <time>2016-04-10T11:26:20Z</time>
      </trkpt>
      <trkpt lat="45.26888" lon="5.84118">
        <ele>494.74</ele>
        <time>2016-04-10T11:26:50Z</time>
      </trkpt>
      <trkpt lat="45.26991" lon="5.84121">
        <ele>502.91</ele>
        <time>2016-04-10T11:27:20Z</time>
      </trkpt>
      <trkpt lat="45.27098" lon="5.8412">
        <ele>511.08</ele>
        <time>2016-04-10T11:27:50Z</time>
      </trkpt>
      <trkpt lat="45.27161" lon="5.8423">
        <ele>518.77</ele>
        <time>2016-04-10T11:28:20Z</time>
      </trkpt>
      <trkpt lat="45.27214" lon="5.84336">
        <ele>526.94</ele>
        <time>2016-04-10T11:28:50Z</time>
      </trkpt>
      <trkpt lat="45.27271" lon="5.84429">
        <ele>535.11</ele>
        <time>2016-04-10T11:29:20Z</time>
      </trkpt>
      <trkpt lat="45.27345" lon="5.84506">
        <ele>542.8</ele>
        <time>2016-04-10T11:29:50Z</time>
      </trkpt>
      <trkpt lat="45.27416" lon="5.8457">
        <ele>550.97</ele>
        <time>2016-04-10T11:30:20Z</time>
      </trkpt>
      <trkpt lat="45.27492" lon="5.84635">
        <ele>559.62</ele>
        <time>2016-04-10T11:30:50Z</time>
      </trkpt>
      <trkpt lat="45.27571" lon="5.84663">
        <ele>568.76</ele>
        <time>2016-04-10T11:31:20Z</time>
      </trkpt>
      <trkpt lat="45.27648" lon="5.84714">
        <ele>576.45</ele>
        <time>2016-04-10T11:31:50Z</time>
      </trkpt>
      <trkpt lat="45.27595" lon="5.8463">
        <ele>583.66</ele>
        <time>2016-04-10T11:32:20Z</time>
      </trkpt>
      <trkpt lat="45.27528" lon="5.84556">
        <ele>593.27</ele>
        <time>2016-04-10T11:32:50Z</time>
      </trkpt>
      <trkpt lat="45.27462" lon="5.84482">
        <ele>601.92</ele>
        <time>2016-04-10T11:33:20Z</time>
      </trkpt>
      <trkpt lat="45.27387" lon="5.84412">
        <ele>610.09</ele>
        <time>2016-04-10T11:33:50Z</time>
      </trkpt>
      <trkpt lat="45.27335" lon="5.84308">
        <ele>618.75</ele>
        <time>2016-04-10T11:34:20Z</time>
      </trkpt>
      <trkpt lat="45.27297" lon="5.84192">
        <ele>627.4</ele>
        <time>2016-04-10T11:34:50Z</time>
      </trkpt>
      <trkpt lat="45.27319" lon="5.84077">
        <ele>636.53</ele>
        <time>2016-04-10T11:35:20Z</time>
      </trkpt>
      <trkpt lat="45.27328" lon="5.83951">
        <ele>644.7</ele>
        <time>2016-04-10T11:35:50Z</time>
      </trkpt>
      <trkpt lat="45.27366" lon="5.83833">
        <ele>652.39</ele>
        <time>2016-04-10T11:36:20Z</time>
      </trkpt>
      <trkpt lat="45.2741" lon="5.83725">
        <ele>661.04</ele>
        <time>2016-04-10T11:36:50Z</time>
      </trkpt>
      <trkpt lat="45.27424" lon="5.83611">
        <ele>668.73</ele>
        <time>2016-04-10T11:37:20Z</time>
      </trkpt>
      <trkpt lat="45.27444" lon="5.83618">
        <ele>676.91</ele>
        <time>2016-04-10T11:37:50Z</time>
      </trkpt>
      <trkpt lat="45.27422" lon="5.83744">
        <ele>683.63</ele>
        <time>2016-04-10T11:38:20Z</time>
      </trkpt>
      <trkpt lat="45.27393" lon="5.83879">
        <ele>689.4</ele>
        <time>2016-04-10T11:38:50Z</time>
      </trkpt>
      <trkpt lat="45.27446" lon="5.83946">
        <ele>698.05</ele>
        <time>2016-04-10T11:39:20Z</time>
      </trkpt>
      <trkpt lat="45.2749" lon="5.84047">
        <ele>708.15</ele>
        <time>2016-04-10T11:39:50Z</time>
      </trkpt>
      <trkpt lat="45.27542" lon="5.84151">
        <ele>716.8</ele>
        <time>2016-04-10T11:40:20Z</time>
      </trkpt>
      <trkpt lat="45.27604" lon="5.842">
        <ele>724.49</ele>
        <time>2016-04-10T11:40:50Z</time>
      </trkpt>
      <trkpt lat="45.27579" lon="5.84081">
        <ele>733.14</ele>
        <time>2016-04-10T11:41:20Z</time>
      </trkpt>
      <trkpt lat="45.27567" lon="5.8397">
        <ele>741.79</ele>
        <time>2016-04-10T11:41:50Z</time>
      </trkpt>
      <trkpt lat="45.27539" lon="5.83859">
        <ele>750.93</ele>
        <time>2016-04-10T11:42:20Z</time>
      </trkpt>
      <trkpt lat="45.27534" lon="5.83809">
        <ele>759.1</ele>
        <time>2016-04-10T11:42:50Z</time>
      </trkpt>
      <trkpt lat="45.27588" lon="5.83887">
        <ele>766.79</ele>
        <time>2016-04-10T11:43:20Z</time>
      </trkpt>
      <trkpt lat="45.27653" lon="5.83958">
        <ele>775.92</ele>
        <time>2016-04-10T11:43:50Z</time>
      </trkpt>
      <trkpt lat="45.27692" lon="5.84056">
        <ele>784.57</ele>
        <time>2016-04-10T11:44:20Z</time>
      </trkpt>
      <trkpt lat="45.27743" lon="5.84149">
        <ele>791.78</ele>
        <time>2016-04-10T11:44:50Z</time>
      </trkpt>
      <trkpt lat="45.27807" lon="5.84218">
        <ele>799.95</ele>
        <time>2016-04-10T11:45:20Z</time>
      </trkpt>
      <trkpt lat="45.27851" lon="5.84315">
        <ele>808.13</ele>
        <time>2016-04-10T11:45:50Z</time>
      </trkpt>
      <trkpt lat="45.27887" lon="5.84403">
        <ele>815.82</ele>
        <time>2016-04-10T11:46:20Z</time>
      </trkpt>
      <trkpt lat="45.27893" lon="5.84513">
        <ele>823.99</ele>
        <time>2016-04-10T11:46:50Z</time>
      </trkpt>
      <trkpt lat="45.27907" lon="5.84616">
        <ele>832.16</ele>
        <time>2016-04-10T11:47:20Z</time>
      </trkpt>
      <trkpt lat="45.27964" lon="5.84693">
        <ele>839.85</ele>
        <time>2016-04-10T11:47:50Z</time>
      </trkpt>
      <trkpt lat="45.28022" lon="5.84726">
        <ele>846.1</ele>
        <time>2016-04-10T11:48:20Z</time>
      </trkpt>
      <trkpt lat="45.28026" lon="5.84723">
        <ele>846.1</ele>
        <time>2016-04-10T11:48:50Z</time>
      </trkpt>
      <trkpt lat="45.28027" lon="5.8472">
        <ele>846.1</ele>
        <time>2016-04-10T11:49:20Z</time>
      </trkpt>
      <trkpt lat="45.28028" lon="5.84719">
        <ele>846.1</ele>
        <time>2016-04-10T11:49:50Z</time>
      </trkpt>
      <trkpt lat="45.28029" lon="5.84718">
        <ele>846.1</ele>
        <time>2016-04-10T11:50:20Z</time>
      </trkpt>
      <trkpt lat="45.28028" lon="5.84719">
        <ele>846.1</ele>
        <time>2016-04-10T11:50:50Z</time>
      </trkpt>
      <trkpt lat="45.28028" lon="5.84719">
        <ele>846.1</ele>
        <time>2016-04-10T11:51:20Z</time>
      </trkpt>
      <trkpt lat="45.28042" lon="5.84718">
        <ele>851.38</ele>
        <time>2016-04-10T11:51:50Z</time>
      </trkpt>
      <trkpt lat="45.2826" lon="5.8484">
        <ele>870.13</ele>
        <time>2016-04-10T11:53:01Z</time>
      </trkpt>
      <trkpt lat="45.2832" lon="5.84794">
        <ele>881.19</ele>
        <time>2016-04-10T11:53:31Z</time>
      </trkpt>
      <trkpt lat="45.2849" lon="5.84854">
        <ele>892.72</ele>
        <time>2016-04-10T11:54:01Z</time>
      </trkpt>
      <trkpt lat="45.28462" lon="5.84838">
        <ele>893.68</ele>
        <time>2016-04-10T11:54:31Z</time>
      </trkpt>
      <trkpt lat="45.28464" lon="5.84839">
        <ele>894.64</ele>
        <time>2016-04-10T11:55:01Z</time>
      </trkpt>
      <trkpt lat="45.28503" lon="5.84875">
        <ele>901.37</ele>
        <time>2016-04-10T11:55:31Z</time>
      </trkpt>
      <trkpt lat="45.28574" lon="5.84898">
        <ele>908.58</ele>
        <time>2016-04-10T11:56:01Z</time>
      </trkpt>
      <trkpt lat="45.28644" lon="5.84959">
        <ele>916.27</ele>
        <time>2016-04-10T11:56:31Z</time>
      </trkpt>
      <trkpt lat="45.2871" lon="5.85032">
        <ele>924.45</ele>
        <time>2016-04-10T11:57:01Z</time>
      </trkpt>
      <trkpt lat="45.28783" lon="5.85087">
        <ele>931.65</ele>
        <time>2016-04-10T11:57:31Z</time>
      </trkpt>
      <trkpt lat="45.28852" lon="5.85043">
        <ele>937.9</ele>
        <time>2016-04-10T11:58:01Z</time>
      </trkpt>
      <trkpt lat="45.28835" lon="5.8501">
        <ele>943.67</ele>
        <time>2016-04-10T11:58:31Z</time>
      </trkpt>
      <trkpt lat="45.2876" lon="5.85021">
        <ele>951.84</ele>
        <time>2016-04-10T11:59:01Z</time>
      </trkpt>
      <trkpt lat="45.28758" lon="5.84972">
        <ele>957.61</ele>
        <time>2016-04-10T11:59:31Z</time>
      </trkpt>
      <trkpt lat="45.28763" lon="5.84963">
        <ele>959.05</ele>
        <time>2016-04-10T12:00:01Z</time>
      </trkpt>
      <trkpt lat="45.28763" lon="5.84962">
        <ele>959.53</ele>
        <time>2016-04-10T12:00:31Z</time>
      </trkpt>
      <trkpt lat="45.28762" lon="5.84962">
        <ele>960.01</ele>
        <time>2016-04-10T12:01:01Z</time>
      </trkpt>
      <trkpt lat="45.28763" lon="5.84962">
        <ele>959.53</ele>
        <time>2016-04-10T12:01:31Z</time>
      </trkpt>
      <trkpt lat="45.28764" lon="5.84962">
        <ele>959.53</ele>
        <time>2016-04-10T12:02:01Z</time>
      </trkpt>
      <trkpt lat="45.28765" lon="5.84962">
        <ele>960.01</ele>
        <time>2016-04-10T12:02:31Z</time>
      </trkpt>
      <trkpt lat="45.28768" lon="5.84951">
        <ele>960.49</ele>
        <time>2016-04-10T12:03:01Z</time>
      </trkpt>
      <trkpt lat="45.28795" lon="5.84857">
        <ele>968.18</ele>
        <time>2016-04-10T12:03:31Z</time>
      </trkpt>
      <trkpt lat="45.28864" lon="5.84796">
        <ele>974.91</ele>
        <time>2016-04-10T12:04:01Z</time>
      </trkpt>
      <trkpt lat="45.28942" lon="5.84772">
        <ele>983.09</ele>
        <time>2016-04-10T12:04:31Z</time>
      </trkpt>
      <trkpt lat="45.29011" lon="5.84727">
        <ele>990.3</ele>
        <time>2016-04-10T12:05:01Z</time>
      </trkpt>
      <trkpt lat="45.29087" lon="5.84783">
        <ele>996.06</ele>
        <time>2016-04-10T12:05:31Z</time>
      </trkpt>
      <trkpt lat="45.29078" lon="5.84709">
        <ele>1002.79</ele>
        <time>2016-04-10T12:06:01Z</time>
      </trkpt>
      <trkpt lat="45.29014" lon="5.8464">
        <ele>1010.48</ele>
        <time>2016-04-10T12:06:31Z</time>
      </trkpt>
      <trkpt lat="45.2898" lon="5.84577">
        <ele>1016.73</ele>
        <time>2016-04-10T12:07:01Z</time>
      </trkpt>
      <trkpt lat="45.29063" lon="5.84604">
        <ele>1023.94</ele>
        <time>2016-04-10T12:07:31Z</time>
      </trkpt>
      <trkpt lat="45.29141" lon="5.84595">
        <ele>1031.63</ele>
        <time>2016-04-10T12:08:01Z</time>
      </trkpt>
      <trkpt lat="45.29161" lon="5.84545">
        <ele>1038.36</ele>
        <time>2016-04-10T12:08:31Z</time>
      </trkpt>
      <trkpt lat="45.29087" lon="5.84495">
        <ele>1045.09</ele>
        <time>2016-04-10T12:09:01Z</time>
      </trkpt>
      <trkpt lat="45.29015" lon="5.84427">
        <ele>1051.82</ele>
        <time>2016-04-10T12:09:31Z</time>
      </trkpt>
      <trkpt lat="45.28947" lon="5.84361">
        <ele>1059.51</ele>
        <time>2016-04-10T12:10:01Z</time>
      </trkpt>
      <trkpt lat="45.28865" lon="5.84356">
        <ele>1066.72</ele>
        <time>2016-04-10T12:10:31Z</time>
      </trkpt>
      <trkpt lat="45.28812" lon="5.84311">
        <ele>1074.41</ele>
        <time>2016-04-10T12:11:01Z</time>
      </trkpt>
      <trkpt lat="45.28884" lon="5.84259">
        <ele>1082.1</ele>
        <time>2016-04-10T12:11:31Z</time>
      </trkpt>
      <trkpt lat="45.28967" lon="5.84232">
        <ele>1088.83</ele>
        <time>2016-04-10T12:12:01Z</time>
      </trkpt>
      <trkpt lat="45.28894" lon="5.84203">
        <ele>1095.08</ele>
        <time>2016-04-10T12:12:31Z</time>
      </trkpt>
      <trkpt lat="45.28958" lon="5.84175">
        <ele>1103.25</ele>
        <time>2016-04-10T12:13:01Z</time>
      </trkpt>
      <trkpt lat="45.28997" lon="5.8417">
        <ele>1106.13</ele>
        <time>2016-04-10T12:13:31Z</time>
      </trkpt>
      <trkpt lat="45.28998" lon="5.84171">
        <ele>1106.13</ele>
        <time>2016-04-10T12:14:01Z</time>
      </trkpt>
      <trkpt lat="45.28997" lon="5.8417">
        <ele>1107.1</ele>
        <time>2016-04-10T12:14:31Z</time>
      </trkpt>
      <trkpt lat="45.29056" lon="5.84141">
        <ele>1114.79</ele>
        <time>2016-04-10T12:15:01Z</time>
      </trkpt>
      <trkpt lat="45.29109" lon="5.84115">
        <ele>1120.55</ele>
        <time>2016-04-10T12:15:31Z</time>
      </trkpt>
      <trkpt lat="45.29038" lon="5.84069">
        <ele>1124.4</ele>
        <time>2016-04-10T12:16:01Z</time>
      </trkpt>
      <trkpt lat="45.28988" lon="5.84052">
        <ele>1123.92</ele>
        <time>2016-04-10T12:16:31Z</time>
      </trkpt>
      <trkpt lat="45.28979" lon="5.83977">
        <ele>1143.14</ele>
        <time>2016-04-10T12:17:01Z</time>
      </trkpt>
      <trkpt lat="45.28958" lon="5.83907">
        <ele>1153.24</ele>
        <time>2016-04-10T12:17:31Z</time>
      </trkpt>
      <trkpt lat="45.28923" lon="5.83868">
        <ele>1167.18</ele>
        <time>2016-04-10T12:18:01Z</time>
      </trkpt>
      <trkpt lat="45.28908" lon="5.83849">
        <ele>1172.95</ele>
        <time>2016-04-10T12:18:31Z</time>
      </trkpt>
      <trkpt lat="45.28909" lon="5.83848">
        <ele>1172.95</ele>
        <time>2016-04-10T12:19:01Z</time>
      </trkpt>
      <trkpt lat="45.28889" lon="5.83831">
        <ele>1180.16</ele>
        <time>2016-04-10T12:19:31Z</time>
      </trkpt>
      <trkpt lat="45.28848" lon="5.83799">
        <ele>1195.54</ele>
        <time>2016-04-10T12:20:01Z</time>
      </trkpt>
      <trkpt lat="45.28791" lon="5.8377">
        <ele>1199.38</ele>
        <time>2016-04-10T12:20:31Z</time>
      </trkpt>
      <trkpt lat="45.28761" lon="5.83752">
        <ele>1199.86</ele>
        <time>2016-04-10T12:21:01Z</time>
      </trkpt>
      <trkpt lat="45.28755" lon="5.83748">
        <ele>1199.86</ele>
        <time>2016-04-10T12:21:31Z</time>
      </trkpt>
      <trkpt lat="45.28752" lon="5.83747">
        <ele>1200.34</ele>
        <time>2016-04-10T12:22:01Z</time>
      </trkpt>
      <trkpt lat="45.28751" lon="5.83747">
        <ele>1200.82</ele>
        <time>2016-04-10T12:22:31Z</time>
      </trkpt>
      <trkpt lat="45.2875" lon="5.83747">
        <ele>1201.3</ele>
        <time>2016-04-10T12:23:01Z</time>
      </trkpt>
      <trkpt lat="45.2875" lon="5.83748">
        <ele>1201.3</ele>
        <time>2016-04-10T12:23:31Z</time>
      </trkpt>
      <trkpt lat="45.2875" lon="5.83749">
        <ele>1201.79</ele>
        <time>2016-04-10T12:24:01Z</time>
      </trkpt>
      <trkpt lat="45.28751" lon="5.8375">
        <ele>1201.3</ele>
        <time>2016-04-10T12:24:31Z</time>
      </trkpt>
      <trkpt lat="45.28752" lon="5.8375">
        <ele>1201.79</ele>
        <time>2016-04-10T12:25:01Z</time>
      </trkpt>
      <trkpt lat="45.28751" lon="5.8375">
        <ele>1201.79</ele>
        <time>2016-04-10T12:25:31Z</time>
      </trkpt>
      <trkpt lat="45.28751" lon="5.8375">
        <ele>1201.79</ele>
        <time>2016-04-10T12:26:01Z</time>
      </trkpt>
      <trkpt lat="45.2875" lon="5.83749">
        <ele>1202.27</ele>
        <time>2016-04-10T12:26:31Z</time>
      </trkpt>
      <trkpt lat="45.2875" lon="5.83749">
        <ele>1202.75</ele>
        <time>2016-04-10T12:27:01Z</time>
      </trkpt>
      <trkpt lat="45.28754" lon="5.83736">
        <ele>1201.79</ele>
        <time>2016-04-10T12:27:31Z</time>
      </trkpt>
      <trkpt lat="45.28821" lon="5.83572">
        <ele>1184.96</ele>
        <time>2016-04-10T12:28:01Z</time>
      </trkpt>
      <trkpt lat="45.28908" lon="5.83456">
        <ele>1166.7</ele>
        <time>2016-04-10T12:28:31Z</time>
      </trkpt>
      <trkpt lat="45.28885" lon="5.83453">
        <ele>1160.45</ele>
        <time>2016-04-10T12:29:01Z</time>
      </trkpt>
      <trkpt lat="45.28816" lon="5.83497">
        <ele>1147.47</ele>
        <time>2016-04-10T12:29:31Z</time>
      </trkpt>
      <trkpt lat="45.28872" lon="5.83413">
        <ele>1134.01</ele>
        <time>2016-04-10T12:30:01Z</time>
      </trkpt>
      <trkpt lat="45.28823" lon="5.83427">
        <ele>1118.15</ele>
        <time>2016-04-10T12:30:31Z</time>
      </trkpt>
      <trkpt lat="45.28848" lon="5.83367">
        <ele>1103.73</ele>
        <time>2016-04-10T12:31:01Z</time>
      </trkpt>
      <trkpt lat="45.28854" lon="5.83361">
        <ele>1102.29</ele>
        <time>2016-04-10T12:31:31Z</time>
      </trkpt>
      <trkpt lat="45.28795" lon="5.83403">
        <ele>1091.23</ele>
        <time>2016-04-10T12:32:01Z</time>
      </trkpt>
      <trkpt lat="45.28826" lon="5.83365">
        <ele>1084.5</ele>
        <time>2016-04-10T12:32:31Z</time>
      </trkpt>
      <trkpt lat="45.28826" lon="5.83349">
        <ele>1081.14</ele>
        <time>2016-04-10T12:33:01Z</time>
      </trkpt>
      <trkpt lat="45.28797" lon="5.83382">
        <ele>1074.41</ele>
        <time>2016-04-10T12:33:31Z</time>
      </trkpt>
      <trkpt lat="45.28736" lon="5.83425">
        <ele>1062.39</ele>
        <time>2016-04-10T12:34:01Z</time>
      </trkpt>
      <trkpt lat="45.28755" lon="5.83397">
        <ele>1052.3</ele>
        <time>2016-04-10T12:34:31Z</time>
      </trkpt>
      <trkpt lat="45.28804" lon="5.83304">
        <ele>1035.96</ele>
        <time>2016-04-10T12:35:01Z</time>
      </trkpt>
      <trkpt lat="45.28743" lon="5.83321">
        <ele>1021.54</ele>
        <time>2016-04-10T12:35:31Z</time>
      </trkpt>
      <trkpt lat="45.28706" lon="5.8335">
        <ele>1014.33</ele>
        <time>2016-04-10T12:36:01Z</time>
      </trkpt>
      <trkpt lat="45.28689" lon="5.83361">
        <ele>1002.79</ele>
        <time>2016-04-10T12:36:31Z</time>
      </trkpt>
      <trkpt lat="45.28759" lon="5.83252">
        <ele>985.49</ele>
        <time>2016-04-10T12:37:01Z</time>
      </trkpt>
      <trkpt lat="45.28784" lon="5.83194">
        <ele>976.36</ele>
        <time>2016-04-10T12:37:31Z</time>
      </trkpt>
      <trkpt lat="45.28782" lon="5.8319">
        <ele>976.36</ele>
        <time>2016-04-10T12:38:01Z</time>
      </trkpt>
      <trkpt lat="45.2878" lon="5.83193">
        <ele>975.39</ele>
        <time>2016-04-10T12:38:31Z</time>
      </trkpt>
      <trkpt lat="45.28695" lon="5.83249">
        <ele>960.01</ele>
        <time>2016-04-10T12:39:01Z</time>
      </trkpt>
      <trkpt lat="45.28619" lon="5.83298">
        <ele>948.48</ele>
        <time>2016-04-10T12:39:31Z</time>
      </trkpt>
      <trkpt lat="45.28677" lon="5.8322">
        <ele>933.58</ele>
        <time>2016-04-10T12:40:01Z</time>
      </trkpt>
      <trkpt lat="45.28722" lon="5.83134">
        <ele>920.6</ele>
        <time>2016-04-10T12:40:31Z</time>
      </trkpt>
      <trkpt lat="45.28626" lon="5.83174">
        <ele>904.26</ele>
        <time>2016-04-10T12:41:01Z</time>
      </trkpt>
      <trkpt lat="45.28614" lon="5.83187">
        <ele>900.89</ele>
        <time>2016-04-10T12:41:31Z</time>
      </trkpt>
      <trkpt lat="45.2866" lon="5.83133">
        <ele>890.32</ele>
        <time>2016-04-10T12:42:01Z</time>
      </trkpt>
      <trkpt lat="45.28674" lon="5.83115">
        <ele>883.11</ele>
        <time>2016-04-10T12:42:31Z</time>
      </trkpt>
      <trkpt lat="45.28676" lon="5.83083">
        <ele>882.63</ele>
        <time>2016-04-10T12:43:01Z</time>
      </trkpt>
      <trkpt lat="45.28706" lon="5.83073">
        <ele>885.51</ele>
        <time>2016-04-10T12:43:31Z</time>
      </trkpt>
      <trkpt lat="45.28709" lon="5.8306">
        <ele>884.07</ele>
        <time>2016-04-10T12:44:01Z</time>
      </trkpt>
      <trkpt lat="45.28703" lon="5.83054">
        <ele>885.99</ele>
        <time>2016-04-10T12:44:31Z</time>
      </trkpt>
      <trkpt lat="45.2866" lon="5.83029">
        <ele>880.22</ele>
        <time>2016-04-10T12:45:01Z</time>
      </trkpt>
      <trkpt lat="45.28607" lon="5.83019">
        <ele>871.09</ele>
        <time>2016-04-10T12:45:31Z</time>
      </trkpt>
      <trkpt lat="45.28569" lon="5.83011">
        <ele>860.52</ele>
        <time>2016-04-10T12:46:01Z</time>
      </trkpt>
      <trkpt lat="45.28571" lon="5.83017">
        <ele>857.63</ele>
        <time>2016-04-10T12:46:31Z</time>
      </trkpt>
      <trkpt lat="45.28512" lon="5.82995">
        <ele>848.98</ele>
        <time>2016-04-10T12:47:01Z</time>
      </trkpt>
      <trkpt lat="45.28474" lon="5.83">
        <ele>836.96</ele>
        <time>2016-04-10T12:47:31Z</time>
      </trkpt>
      <trkpt lat="45.28389" lon="5.82977">
        <ele>817.74</ele>
        <time>2016-04-10T12:48:01Z</time>
      </trkpt>
      <trkpt lat="45.28268" lon="5.82939">
        <ele>793.22</ele>
        <time>2016-04-10T12:48:31Z</time>
      </trkpt>
      <trkpt lat="45.28213" lon="5.82955">
        <ele>782.65</ele>
        <time>2016-04-10T12:49:01Z</time>
      </trkpt>
      <trkpt lat="45.28092" lon="5.82956">
        <ele>759.1</ele>
        <time>2016-04-10T12:49:31Z</time>
      </trkpt>
      <trkpt lat="45.28029" lon="5.82994">
        <ele>747.08</ele>
        <time>2016-04-10T12:50:01Z</time>
      </trkpt>
      <trkpt lat="45.27874" lon="5.8291">
        <ele>723.05</ele>
        <time>2016-04-10T12:50:31Z</time>
      </trkpt>
      <trkpt lat="45.277" lon="5.82936">
        <ele>693.73</ele>
        <time>2016-04-10T12:51:01Z</time>
      </trkpt>
      <trkpt lat="45.27536" lon="5.82957">
        <ele>663.45</ele>
        <time>2016-04-10T12:51:31Z</time>
      </trkpt>
      <trkpt lat="45.27371" lon="5.82977">
        <ele>642.3</ele>
        <time>2016-04-10T12:52:01Z</time>
      </trkpt>
      <trkpt lat="45.27309" lon="5.83038">
        <ele>634.13</ele>
        <time>2016-04-10T12:52:31Z</time>
      </trkpt>
      <trkpt lat="45.27254" lon="5.83082">
        <ele>621.15</ele>
        <time>2016-04-10T12:53:01Z</time>
      </trkpt>
      <trkpt lat="45.27153" lon="5.83192">
        <ele>603.85</ele>
        <time>2016-04-10T12:53:31Z</time>
      </trkpt>
      <trkpt lat="45.27047" lon="5.83232">
        <ele>586.54</ele>
        <time>2016-04-10T12:54:01Z</time>
      </trkpt>
      <trkpt lat="45.27063" lon="5.83219">
        <ele>590.87</ele>
        <time>2016-04-10T12:54:31Z</time>
      </trkpt>
      <trkpt lat="45.27129" lon="5.83189">
        <ele>601.92</ele>
        <time>2016-04-10T12:55:01Z</time>
      </trkpt>
      <trkpt lat="45.27199" lon="5.83149">
        <ele>611.06</ele>
        <time>2016-04-10T12:55:31Z</time>
      </trkpt>
      <trkpt lat="45.27248" lon="5.83084">
        <ele>620.19</ele>
        <time>2016-04-10T12:56:01Z</time>
      </trkpt>
      <trkpt lat="45.27275" lon="5.83027">
        <ele>629.32</ele>
        <time>2016-04-10T12:56:31Z</time>
      </trkpt>
      <trkpt lat="45.27299" lon="5.83019">
        <ele>632.2</ele>
        <time>2016-04-10T12:57:01Z</time>
      </trkpt>
      <trkpt lat="45.27262" lon="5.83121">
        <ele>619.71</ele>
        <time>2016-04-10T12:57:31Z</time>
      </trkpt>
      <trkpt lat="45.27259" lon="5.83163">
        <ele>618.26</ele>
        <time>2016-04-10T12:58:01Z</time>
      </trkpt>
      <trkpt lat="45.27194" lon="5.83319">
        <ele>606.25</ele>
        <time>2016-04-10T12:58:31Z</time>
      </trkpt>
      <trkpt lat="45.27025" lon="5.83336">
        <ele>581.73</ele>
        <time>2016-04-10T12:59:01Z</time>
      </trkpt>
      <trkpt lat="45.26962" lon="5.83385">
        <ele>569.72</ele>
        <time>2016-04-10T12:59:31Z</time>
      </trkpt>
      <trkpt lat="45.26962" lon="5.83475">
        <ele>563.47</ele>
        <time>2016-04-10T13:00:01Z</time>
      </trkpt>
      <trkpt lat="45.26907" lon="5.83526">
        <ele>553.38</ele>
        <time>2016-04-10T13:00:31Z</time>
      </trkpt>
      <trkpt lat="45.26776" lon="5.83621">
        <ele>533.67</ele>
        <time>2016-04-10T13:01:01Z</time>
      </trkpt>
      <trkpt lat="45.26644" lon="5.83647">
        <ele>514.92</ele>
        <time>2016-04-10T13:01:31Z</time>
      </trkpt>
      <trkpt lat="45.26525" lon="5.83802">
        <ele>494.74</ele>
        <time>2016-04-10T13:02:01Z</time>
      </trkpt>
      <trkpt lat="45.26387" lon="5.83839">
        <ele>477.91</ele>
        <time>2016-04-10T13:02:31Z</time>
      </trkpt>
      <trkpt lat="45.26334" lon="5.83743">
        <ele>475.99</ele>
        <time>2016-04-10T13:03:01Z</time>
      </trkpt>
      <trkpt lat="45.26335" lon="5.83744">
        <ele>475.51</ele>
        <time>2016-04-10T13:03:31Z</time>
      </trkpt>
      <trkpt lat="45.26336" lon="5.83744">
        <ele>475.03</ele>
        <time>2016-04-10T13:04:01Z</time>
      </trkpt>
      <trkpt lat="45.26334" lon="5.83747">
        <ele>475.03</ele>
        <time>2016-04-10T13:04:31Z</time>
      </trkpt>
      <trkpt lat="45.26334" lon="5.83746">
        <ele>474.55</ele>
        <time>2016-04-10T13:05:01Z</time>
      </trkpt>
      <trkpt lat="45.26336" lon="5.83745">
        <ele>474.55</ele>
        <time>2016-04-10T13:05:31Z</time>
      </trkpt>
      <trkpt lat="45.26336" lon="5.83745">
        <ele>474.07</ele>
        <time>2016-04-10T13:06:01Z</time>
      </trkpt>
      <trkpt lat="45.26335" lon="5.83745">
        <ele>474.07</ele>
        <time>2016-04-10T13:06:31Z</time>
      </trkpt>
      <trkpt lat="45.26316" lon="5.83699">
        <ele>474.07</ele>
        <time>2016-04-10T13:07:01Z</time>
      </trkpt>
      <trkpt lat="45.26295" lon="5.83552">
        <ele>473.11</ele>
        <time>2016-04-10T13:07:31Z</time>
      </trkpt>
      <trkpt lat="45.2625" lon="5.83316">
        <ele>470.7</ele>
        <time>2016-04-10T13:08:01Z</time>
      </trkpt>
      <trkpt lat="45.26106" lon="5.83177">
        <ele>453.4</ele>
        <time>2016-04-10T13:08:31Z</time>
      </trkpt>
      <trkpt lat="45.25919" lon="5.83117">
        <ele>440.9</ele>
        <time>2016-04-10T13:09:01Z</time>
      </trkpt>
      <trkpt lat="45.25713" lon="5.82898">
        <ele>426.48</ele>
        <time>2016-04-10T13:09:31Z</time>
      </trkpt>
      <trkpt lat="45.25605" lon="5.82724">
        <ele>430.81</ele>
        <time>2016-04-10T13:10:01Z</time>
      </trkpt>
      <trkpt lat="45.25528" lon="5.8262">
        <ele>439.94</ele>
        <time>2016-04-10T13:10:31Z</time>
      </trkpt>
      <trkpt lat="45.25452" lon="5.82527">
        <ele>447.63</ele>
        <time>2016-04-10T13:11:01Z</time>
      </trkpt>
      <trkpt lat="45.25365" lon="5.82417">
        <ele>450.52</ele>
        <time>2016-04-10T13:11:31Z</time>
      </trkpt>
      <trkpt lat="45.25239" lon="5.82304">
        <ele>447.15</ele>
        <time>2016-04-10T13:12:01Z</time>
      </trkpt>
      <trkpt lat="45.25196" lon="5.82183">
        <ele>448.11</ele>
        <time>2016-04-10T13:12:31Z</time>
      </trkpt>
      <trkpt lat="45.25256" lon="5.82144">
        <ele>457.24</ele>
        <time>2016-04-10T13:13:01Z</time>
      </trkpt>
      <trkpt lat="45.25323" lon="5.82148">
        <ele>466.38</ele>
        <time>2016-04-10T13:13:31Z</time>
      </trkpt>
      <trkpt lat="45.25376" lon="5.8212">
        <ele>474.55</ele>
        <time>2016-04-10T13:14:01Z</time>
      </trkpt>
      <trkpt lat="45.25433" lon="5.82108">
        <ele>482.72</ele>
        <time>2016-04-10T13:14:31Z</time>
      </trkpt>
      <trkpt lat="45.25491" lon="5.82085">
        <ele>491.37</ele>
        <time>2016-04-10T13:15:01Z</time>
      </trkpt>
      <trkpt lat="45.2555" lon="5.82067">
        <ele>500.02</ele>
        <time>2016-04-10T13:15:31Z</time>
      </trkpt>
      <trkpt lat="45.25582" lon="5.82008">
        <ele>508.19</ele>
        <time>2016-04-10T13:16:01Z</time>
      </trkpt>
      <trkpt lat="45.25615" lon="5.81942">
        <ele>517.33</ele>
        <time>2016-04-10T13:16:31Z</time>
      </trkpt>
      <trkpt lat="45.25657" lon="5.8188">
        <ele>527.42</ele>
        <time>2016-04-10T13:17:01Z</time>
      </trkpt>
      <trkpt lat="45.25698" lon="5.81831">
        <ele>536.55</ele>
        <time>2016-04-10T13:17:31Z</time>
      </trkpt>
      <trkpt lat="45.2574" lon="5.81792">
        <ele>545.69</ele>
        <time>2016-04-10T13:18:01Z</time>
      </trkpt>
      <trkpt lat="45.25778" lon="5.81753">
        <ele>554.82</ele>
        <time>2016-04-10T13:18:31Z</time>
      </trkpt>
      <trkpt lat="45.25814" lon="5.8171">
        <ele>563.47</ele>
        <time>2016-04-10T13:19:01Z</time>
      </trkpt>
      <trkpt lat="45.25855" lon="5.81675">
        <ele>573.08</ele>
        <time>2016-04-10T13:19:31Z</time>
      </trkpt>
      <trkpt lat="45.2589" lon="5.81619">
        <ele>583.18</ele>
        <time>2016-04-10T13:20:01Z</time>
      </trkpt>
      <trkpt lat="45.25901" lon="5.81568">
        <ele>589.43</ele>
        <time>2016-04-10T13:20:31Z</time>
      </trkpt>
      <trkpt lat="45.25903" lon="5.81568">
        <ele>589.43</ele>
        <time>2016-04-10T13:21:01Z</time>
      </trkpt>
      <trkpt lat="45.25903" lon="5.81566">
        <ele>589.43</ele>
        <time>2016-04-10T13:21:31Z</time>
      </trkpt>
      <trkpt lat="45.25923" lon="5.81578">
        <ele>590.87</ele>
        <time>2016-04-10T13:22:01Z</time>
      </trkpt>
      <trkpt lat="45.2594" lon="5.81582">
        <ele>591.35</ele>
        <time>2016-04-10T13:22:31Z</time>
      </trkpt>
      <trkpt lat="45.25972" lon="5.81556">
        <ele>601.92</ele>
        <time>2016-04-10T13:23:01Z</time>
      </trkpt>
      <trkpt lat="45.26016" lon="5.81586">
        <ele>604.33</ele>
        <time>2016-04-10T13:23:31Z</time>
      </trkpt>
      <trkpt lat="45.26015" lon="5.81586">
        <ele>602.88</ele>
        <time>2016-04-10T13:24:01Z</time>
      </trkpt>
      <trkpt lat="45.26016" lon="5.81587">
        <ele>603.36</ele>
        <time>2016-04-10T13:24:31Z</time>
      </trkpt>
      <trkpt lat="45.26016" lon="5.81587">
        <ele>602.88</ele>
        <time>2016-04-10T13:25:01Z</time>
      </trkpt>
      <trkpt lat="45.26017" lon="5.81588">
        <ele>602.88</ele>
        <time>2016-04-10T13:25:31Z</time>
      </trkpt>
      <trkpt lat="45.26016" lon="5.81587">
        <ele>601.92</ele>
        <time>2016-04-10T13:26:01Z</time>
      </trkpt>
      <trkpt lat="45.26016" lon="5.81587">
        <ele>601.44</ele>
        <time>2016-04-10T13:26:31Z</time>
      </trkpt>
      <trkpt lat="45.26015" lon="5.81587">
        <ele>600.96</ele>
        <time>2016-04-10T13:27:01Z</time>
      </trkpt>
      <trkpt lat="45.25951" lon="5.81542">
        <ele>597.6</ele>
        <time>2016-04-10T13:27:31Z</time>
      </trkpt>
      <trkpt lat="45.25949" lon="5.8165">
        <ele>588.46</ele>
        <time>2016-04-10T13:28:01Z</time>
      </trkpt>
      <trkpt lat="45.25962" lon="5.81669">
        <ele>587.98</ele>
        <time>2016-04-10T13:28:31Z</time>
      </trkpt>
      <trkpt lat="45.26009" lon="5.81646">
        <ele>597.6</ele>
        <time>2016-04-10T13:29:01Z</time>
      </trkpt>
      <trkpt lat="45.2606" lon="5.8161">
        <ele>610.09</ele>
        <time>2016-04-10T13:29:31Z</time>
      </trkpt>
      <trkpt lat="45.26098" lon="5.81561">
        <ele>622.59</ele>
        <time>2016-04-10T13:30:01Z</time>
      </trkpt>
      <trkpt lat="45.26108" lon="5.81542">
        <ele>626.44</ele>
        <time>2016-04-10T13:30:31Z</time>
      </trkpt>
      <trkpt lat="45.26118" lon="5.81525">
        <ele>629.32</ele>
        <time>2016-04-10T13:31:01Z</time>
      </trkpt>
      <trkpt lat="45.26126" lon="5.81517">
        <ele>631.72</ele>
        <time>2016-04-10T13:31:31Z</time>
      </trkpt>
      <trkpt lat="45.26129" lon="5.8151">
        <ele>632.2</ele>
        <time>2016-04-10T13:32:01Z</time>
      </trkpt>
      <trkpt lat="45.26155" lon="5.81492">
        <ele>640.86</ele>
        <time>2016-04-10T13:32:31Z</time>
      </trkpt>
      <trkpt lat="45.26185" lon="5.81466">
        <ele>652.87</ele>
        <time>2016-04-10T13:33:01Z</time>
      </trkpt>
      <trkpt lat="45.2619" lon="5.8146">
        <ele>653.83</ele>
        <time>2016-04-10T13:33:31Z</time>
      </trkpt>
      <trkpt lat="45.26202" lon="5.81453">
        <ele>659.12</ele>
        <time>2016-04-10T13:34:01Z</time>
      </trkpt>
      <trkpt lat="45.26218" lon="5.81442">
        <ele>663.45</ele>
        <time>2016-04-10T13:34:31Z</time>
      </trkpt>
      <trkpt lat="45.26234" lon="5.81441">
        <ele>668.73</ele>
        <time>2016-04-10T13:35:01Z</time>
      </trkpt>
      <trkpt lat="45.26249" lon="5.81436">
        <ele>673.06</ele>
        <time>2016-04-10T13:35:31Z</time>
      </trkpt>
      <trkpt lat="45.26253" lon="5.81432">
        <ele>673.06</ele>
        <time>2016-04-10T13:36:01Z</time>
      </trkpt>
      <trkpt lat="45.26264" lon="5.81414">
        <ele>671.14</ele>
        <time>2016-04-10T13:36:31Z</time>
      </trkpt>
      <trkpt lat="45.26262" lon="5.81416">
        <ele>672.1</ele>
        <time>2016-04-10T13:37:01Z</time>
      </trkpt>
      <trkpt lat="45.26257" lon="5.81424">
        <ele>673.54</ele>
        <time>2016-04-10T13:37:31Z</time>
      </trkpt>
      <trkpt lat="45.26252" lon="5.8143">
        <ele>674.02</ele>
        <time>2016-04-10T13:38:01Z</time>
      </trkpt>
      <trkpt lat="45.26243" lon="5.81437">
        <ele>670.18</ele>
        <time>2016-04-10T13:38:31Z</time>
      </trkpt>
      <trkpt lat="45.26136" lon="5.81502">
        <ele>635.57</ele>
        <time>2016-04-10T13:39:01Z</time>
      </trkpt>
      <trkpt lat="45.26089" lon="5.81554">
        <ele>622.59</ele>
        <time>2016-04-10T13:39:31Z</time>
      </trkpt>
      <trkpt lat="45.26038" lon="5.81605">
        <ele>608.65</ele>
        <time>2016-04-10T13:40:01Z</time>
      </trkpt>
      <trkpt lat="45.26021" lon="5.81608">
        <ele>603.36</ele>
        <time>2016-04-10T13:40:31Z</time>
      </trkpt>
      <trkpt lat="45.26011" lon="5.81597">
        <ele>602.88</ele>
        <time>2016-04-10T13:41:01Z</time>
      </trkpt>
      <trkpt lat="45.25971" lon="5.81568">
        <ele>599.52</ele>
        <time>2016-04-10T13:41:31Z</time>
      </trkpt>
      <trkpt lat="45.25899" lon="5.81571">
        <ele>586.54</ele>
        <time>2016-04-10T13:42:01Z</time>
      </trkpt>
      <trkpt lat="45.25827" lon="5.81547">
        <ele>594.71</ele>
        <time>2016-04-10T13:42:31Z</time>
      </trkpt>
      <trkpt lat="45.25804" lon="5.81487">
        <ele>602.4</ele>
        <time>2016-04-10T13:43:01Z</time>
      </trkpt>
      <trkpt lat="45.25759" lon="5.8141">
        <ele>610.09</ele>
        <time>2016-04-10T13:43:31Z</time>
      </trkpt>
      <trkpt lat="45.25702" lon="5.81318">
        <ele>619.23</ele>
        <time>2016-04-10T13:44:01Z</time>
      </trkpt>
      <trkpt lat="45.25651" lon="5.81219">
        <ele>629.8</ele>
        <time>2016-04-10T13:44:31Z</time>
      </trkpt>
      <trkpt lat="45.25669" lon="5.81216">
        <ele>638.45</ele>
        <time>2016-04-10T13:45:01Z</time>
      </trkpt>
      <trkpt lat="45.2575" lon="5.81267">
        <ele>648.07</ele>
        <time>2016-04-10T13:45:31Z</time>
      </trkpt>
      <trkpt lat="45.2582" lon="5.81257">
        <ele>658.64</ele>
        <time>2016-04-10T13:46:01Z</time>
      </trkpt>
      <trkpt lat="45.25816" lon="5.81182">
        <ele>669.22</ele>
        <time>2016-04-10T13:46:31Z</time>
      </trkpt>
      <trkpt lat="45.25799" lon="5.81164">
        <ele>669.7</ele>
        <time>2016-04-10T13:47:01Z</time>
      </trkpt>
      <trkpt lat="45.25799" lon="5.81165">
        <ele>669.22</ele>
        <time>2016-04-10T13:47:31Z</time>
      </trkpt>
      <trkpt lat="45.2581" lon="5.81153">
        <ele>670.66</ele>
        <time>2016-04-10T13:48:01Z</time>
      </trkpt>
      <trkpt lat="45.25871" lon="5.81123">
        <ele>684.12</ele>
        <time>2016-04-10T13:48:31Z</time>
      </trkpt>
      <trkpt lat="45.25896" lon="5.811">
        <ele>694.69</ele>
        <time>2016-04-10T13:49:01Z</time>
      </trkpt>
      <trkpt lat="45.2594" lon="5.81131">
        <ele>702.38</ele>
        <time>2016-04-10T13:49:31Z</time>
      </trkpt>
      <trkpt lat="45.25981" lon="5.81141">
        <ele>713.92</ele>
        <time>2016-04-10T13:50:01Z</time>
      </trkpt>
      <trkpt lat="45.26003" lon="5.81091">
        <ele>720.65</ele>
        <time>2016-04-10T13:50:31Z</time>
      </trkpt>
      <trkpt lat="45.26006" lon="5.81073">
        <ele>725.45</ele>
        <time>2016-04-10T13:51:01Z</time>
      </trkpt>
      <trkpt lat="45.26005" lon="5.81065">
        <ele>727.37</ele>
        <time>2016-04-10T13:51:31Z</time>
      </trkpt>
      <trkpt lat="45.26006" lon="5.81059">
        <ele>728.82</ele>
        <time>2016-04-10T13:52:01Z</time>
      </trkpt>
      <trkpt lat="45.26006" lon="5.81059">
        <ele>729.78</ele>
        <time>2016-04-10T13:52:31Z</time>
      </trkpt>
      <trkpt lat="45.26006" lon="5.81057">
        <ele>729.3</ele>
        <time>2016-04-10T13:53:01Z</time>
      </trkpt>
      <trkpt lat="45.26006" lon="5.81057">
        <ele>730.26</ele>
        <time>2016-04-10T13:53:31Z</time>
      </trkpt>
      <trkpt lat="45.26008" lon="5.81054">
        <ele>732.66</ele>
        <time>2016-04-10T13:54:01Z</time>
      </trkpt>
      <trkpt lat="45.26006" lon="5.81041">
        <ele>734.58</ele>
        <time>2016-04-10T13:54:31Z</time>
      </trkpt>
      <trkpt lat="45.26004" lon="5.81039">
        <ele>735.07</ele>
        <time>2016-04-10T13:55:01Z</time>
      </trkpt>
      <trkpt lat="45.26001" lon="5.81038">
        <ele>735.55</ele>
        <time>2016-04-10T13:55:31Z</time>
      </trkpt>
      <trkpt lat="45.26001" lon="5.81037">
        <ele>735.07</ele>
        <time>2016-04-10T13:56:01Z</time>
      </trkpt>
      <trkpt lat="45.26001" lon="5.81036">
        <ele>735.07</ele>
        <time>2016-04-10T13:56:31Z</time>
      </trkpt>
      <trkpt lat="45.26001" lon="5.81034">
        <ele>735.55</ele>
        <time>2016-04-10T13:57:01Z</time>
      </trkpt>
      <trkpt lat="45.26001" lon="5.81034">
        <ele>736.03</ele>
        <time>2016-04-10T13:57:31Z</time>
      </trkpt>
      <trkpt lat="45.26001" lon="5.81035">
        <ele>736.51</ele>
        <time>2016-04-10T13:58:01Z</time>
      </trkpt>
      <trkpt lat="45.26001" lon="5.81035">
        <ele>736.51</ele>
        <time>2016-04-10T13:58:31Z</time>
      </trkpt>
      <trkpt lat="45.26" lon="5.81035">
        <ele>736.51</ele>
        <time>2016-04-10T13:59:01Z</time>
      </trkpt>
      <trkpt lat="45.26" lon="5.81032">
        <ele>736.99</ele>
        <time>2016-04-10T13:59:31Z</time>
      </trkpt>
      <trkpt lat="45.25984" lon="5.81046">
        <ele>727.86</ele>
        <time>2016-04-10T14:00:01Z</time>
      </trkpt>
      <trkpt lat="45.25938" lon="5.81077">
        <ele>711.03</ele>
        <time>2016-04-10T14:00:31Z</time>
      </trkpt>
      <trkpt lat="45.2591" lon="5.8107">
        <ele>706.23</ele>
        <time>2016-04-10T14:01:01Z</time>
      </trkpt>
      <trkpt lat="45.25885" lon="5.81067">
        <ele>699.5</ele>
        <time>2016-04-10T14:01:31Z</time>
      </trkpt>
      <trkpt lat="45.25868" lon="5.81036">
        <ele>699.02</ele>
        <time>2016-04-10T14:02:01Z</time>
      </trkpt>
      <trkpt lat="45.25811" lon="5.81012">
        <ele>688.92</ele>
        <time>2016-04-10T14:02:31Z</time>
      </trkpt>
      <trkpt lat="45.25758" lon="5.81014">
        <ele>679.31</ele>
        <time>2016-04-10T14:03:01Z</time>
      </trkpt>
      <trkpt lat="45.25734" lon="5.81009">
        <ele>675.94</ele>
        <time>2016-04-10T14:03:31Z</time>
      </trkpt>
      <trkpt lat="45.25672" lon="5.80997">
        <ele>675.46</ele>
        <time>2016-04-10T14:04:01Z</time>
      </trkpt>
      <trkpt lat="45.25666" lon="5.80998">
        <ele>673.54</ele>
        <time>2016-04-10T14:04:31Z</time>
      </trkpt>
      <trkpt lat="45.25628" lon="5.8098">
        <ele>661.04</ele>
        <time>2016-04-10T14:05:01Z</time>
      </trkpt>
      <trkpt lat="45.25581" lon="5.81018">
        <ele>649.51</ele>
        <time>2016-04-10T14:05:31Z</time>
      </trkpt>
      <trkpt lat="45.2554" lon="5.81056">
        <ele>628.36</ele>
        <time>2016-04-10T14:06:01Z</time>
      </trkpt>
      <trkpt lat="45.25531" lon="5.81098">
        <ele>618.75</ele>
        <time>2016-04-10T14:06:31Z</time>
      </trkpt>
      <trkpt lat="45.25525" lon="5.81142">
        <ele>606.25</ele>
        <time>2016-04-10T14:07:01Z</time>
      </trkpt>
      <trkpt lat="45.25497" lon="5.81183">
        <ele>592.31</ele>
        <time>2016-04-10T14:07:31Z</time>
      </trkpt>
      <trkpt lat="45.25467" lon="5.81157">
        <ele>579.33</ele>
        <time>2016-04-10T14:08:01Z</time>
      </trkpt>
      <trkpt lat="45.25428" lon="5.8116">
        <ele>566.83</ele>
        <time>2016-04-10T14:08:31Z</time>
      </trkpt>
      <trkpt lat="45.25379" lon="5.81124">
        <ele>558.18</ele>
        <time>2016-04-10T14:09:01Z</time>
      </trkpt>
      <trkpt lat="45.25368" lon="5.81126">
        <ele>558.18</ele>
        <time>2016-04-10T14:09:31Z</time>
      </trkpt>
      <trkpt lat="45.25367" lon="5.81126">
        <ele>558.18</ele>
        <time>2016-04-10T14:10:01Z</time>
      </trkpt>
      <trkpt lat="45.25366" lon="5.81127">
        <ele>558.66</ele>
        <time>2016-04-10T14:10:31Z</time>
      </trkpt>
      <trkpt lat="45.25361" lon="5.81126">
        <ele>558.66</ele>
        <time>2016-04-10T14:11:01Z</time>
      </trkpt>
      <trkpt lat="45.25358" lon="5.81136">
        <ele>559.14</ele>
        <time>2016-04-10T14:11:31Z</time>
      </trkpt>
      <trkpt lat="45.25384" lon="5.81172">
        <ele>564.43</ele>
        <time>2016-04-10T14:12:01Z</time>
      </trkpt>
      <trkpt lat="45.25435" lon="5.81212">
        <ele>581.25</ele>
        <time>2016-04-10T14:12:31Z</time>
      </trkpt>
      <trkpt lat="45.25482" lon="5.8134">
        <ele>580.29</ele>
        <time>2016-04-10T14:13:01Z</time>
      </trkpt>
      <trkpt lat="45.25532" lon="5.81345">
        <ele>588.95</ele>
        <time>2016-04-10T14:13:31Z</time>
      </trkpt>
      <trkpt lat="45.25566" lon="5.81373">
        <ele>593.75</ele>
        <time>2016-04-10T14:14:01Z</time>
      </trkpt>
      <trkpt lat="45.256" lon="5.81403">
        <ele>597.12</ele>
        <time>2016-04-10T14:14:31Z</time>
      </trkpt>
      <trkpt lat="45.25636" lon="5.81456">
        <ele>599.52</ele>
        <time>2016-04-10T14:15:01Z</time>
      </trkpt>
      <trkpt lat="45.25725" lon="5.81446">
        <ele>594.71</ele>
        <time>2016-04-10T14:15:31Z</time>
      </trkpt>
      <trkpt lat="45.25773" lon="5.81466">
        <ele>599.52</ele>
        <time>2016-04-10T14:16:01Z</time>
      </trkpt>
      <trkpt lat="45.25808" lon="5.81441">
        <ele>604.81</ele>
        <time>2016-04-10T14:16:31Z</time>
      </trkpt>
      <trkpt lat="45.25774" lon="5.81406">
        <ele>609.13</ele>
        <time>2016-04-10T14:17:01Z</time>
      </trkpt>
      <trkpt lat="45.25732" lon="5.81381">
        <ele>613.94</ele>
        <time>2016-04-10T14:17:31Z</time>
      </trkpt>
      <trkpt lat="45.25713" lon="5.81329">
        <ele>618.26</ele>
        <time>2016-04-10T14:18:01Z</time>
      </trkpt>
      <trkpt lat="45.25671" lon="5.81286">
        <ele>623.55</ele>
        <time>2016-04-10T14:18:31Z</time>
      </trkpt>
      <trkpt lat="45.25643" lon="5.8124">
        <ele>628.36</ele>
        <time>2016-04-10T14:19:01Z</time>
      </trkpt>
      <trkpt lat="45.25658" lon="5.81183">
        <ele>632.68</ele>
        <time>2016-04-10T14:19:31Z</time>
      </trkpt>
      <trkpt lat="45.25662" lon="5.81198">
        <ele>636.53</ele>
        <time>2016-04-10T14:20:01Z</time>
      </trkpt>
      <trkpt lat="45.25684" lon="5.81243">
        <ele>641.82</ele>
        <time>2016-04-10T14:20:31Z</time>
      </trkpt>
      <trkpt lat="45.25729" lon="5.81267">
        <ele>646.62</ele>
        <time>2016-04-10T14:21:01Z</time>
      </trkpt>
      <trkpt lat="45.25754" lon="5.81305">
        <ele>652.39</ele>
        <time>2016-04-10T14:21:31Z</time>
      </trkpt>
      <trkpt lat="45.25807" lon="5.81275">
        <ele>657.2</ele>
        <time>2016-04-10T14:22:01Z</time>
      </trkpt>
      <trkpt lat="45.25843" lon="5.81238">
        <ele>661.52</ele>
        <time>2016-04-10T14:22:31Z</time>
      </trkpt>
      <trkpt lat="45.2582" lon="5.81194">
        <ele>667.77</ele>
        <time>2016-04-10T14:23:01Z</time>
      </trkpt>
      <trkpt lat="45.25792" lon="5.81136">
        <ele>671.14</ele>
        <time>2016-04-10T14:23:31Z</time>
      </trkpt>
      <trkpt lat="45.25776" lon="5.81069">
        <ele>675.46</ele>
        <time>2016-04-10T14:24:01Z</time>
      </trkpt>
      <trkpt lat="45.25756" lon="5.80994">
        <ele>678.83</ele>
        <time>2016-04-10T14:24:31Z</time>
      </trkpt>
      <trkpt lat="45.25748" lon="5.8093">
        <ele>685.56</ele>
        <time>2016-04-10T14:25:01Z</time>
      </trkpt>
      <trkpt lat="45.25736" lon="5.80863">
        <ele>691.33</ele>
        <time>2016-04-10T14:25:31Z</time>
      </trkpt>
      <trkpt lat="45.25732" lon="5.80791">
        <ele>696.61</ele>
        <time>2016-04-10T14:26:01Z</time>
      </trkpt>
      <trkpt lat="45.25716" lon="5.80714">
        <ele>702.86</ele>
        <time>2016-04-10T14:26:31Z</time>
      </trkpt>
      <trkpt lat="45.25702" lon="5.80609">
        <ele>710.07</ele>
        <time>2016-04-10T14:27:01Z</time>
      </trkpt>
      <trkpt lat="45.25689" lon="5.80512">
        <ele>711.03</ele>
        <time>2016-04-10T14:27:31Z</time>
      </trkpt>
      <trkpt lat="45.25677" lon="5.80509">
        <ele>710.55</ele>
        <time>2016-04-10T14:28:01Z</time>
      </trkpt>
      <trkpt lat="45.25676" lon="5.80511">
        <ele>710.07</ele>
        <time>2016-04-10T14:28:31Z</time>
      </trkpt>
      <trkpt lat="45.25678" lon="5.80509">
        <ele>710.07</ele>
        <time>2016-04-10T14:29:01Z</time>
      </trkpt>
      <trkpt lat="45.25678" lon="5.80508">
        <ele>710.07</ele>
        <time>2016-04-10T14:29:31Z</time>
      </trkpt>
      <trkpt lat="45.25677" lon="5.80508">
        <ele>710.07</ele>
        <time>2016-04-10T14:30:01Z</time>
      </trkpt>
      <trkpt lat="45.25676" lon="5.80508">
        <ele>710.07</ele>
        <time>2016-04-10T14:30:31Z</time>
      </trkpt>
      <trkpt lat="45.25675" lon="5.80509">
        <ele>710.07</ele>
        <time>2016-04-10T14:31:01Z</time>
      </trkpt>
      <trkpt lat="45.25669" lon="5.80523">
        <ele>705.26</ele>
        <time>2016-04-10T14:31:31Z</time>
      </trkpt>
      <trkpt lat="45.25649" lon="5.80545">
        <ele>694.21</ele>
        <time>2016-04-10T14:32:01Z</time>
      </trkpt>
      <trkpt lat="45.25627" lon="5.80555">
        <ele>683.63</ele>
        <time>2016-04-10T14:32:31Z</time>
      </trkpt>
      <trkpt lat="45.25601" lon="5.80576">
        <ele>671.62</ele>
        <time>2016-04-10T14:33:01Z</time>
      </trkpt>
      <trkpt lat="45.25579" lon="5.80609">
        <ele>660.08</ele>
        <time>2016-04-10T14:33:31Z</time>
      </trkpt>
      <trkpt lat="45.25559" lon="5.80632">
        <ele>649.03</ele>
        <time>2016-04-10T14:34:01Z</time>
      </trkpt>
      <trkpt lat="45.25553" lon="5.80643">
        <ele>647.1</ele>
        <time>2016-04-10T14:34:31Z</time>
      </trkpt>
      <trkpt lat="45.25552" lon="5.80645">
        <ele>647.59</ele>
        <time>2016-04-10T14:35:01Z</time>
      </trkpt>
      <trkpt lat="45.25552" lon="5.80645">
        <ele>647.1</ele>
        <time>2016-04-10T14:35:31Z</time>
      </trkpt>
      <trkpt lat="45.25552" lon="5.80646">
        <ele>647.1</ele>
        <time>2016-04-10T14:36:01Z</time>
      </trkpt>
      <trkpt lat="45.2555" lon="5.80648">
        <ele>647.1</ele>
        <time>2016-04-10T14:36:31Z</time>
      </trkpt>
      <trkpt lat="45.2555" lon="5.80648">
        <ele>646.62</ele>
        <time>2016-04-10T14:37:01Z</time>
      </trkpt>
      <trkpt lat="45.25551" lon="5.80649">
        <ele>646.62</ele>
        <time>2016-04-10T14:37:31Z</time>
      </trkpt>
      <trkpt lat="45.2555" lon="5.80656">
        <ele>645.18</ele>
        <time>2016-04-10T14:38:01Z</time>
      </trkpt>
      <trkpt lat="45.2556" lon="5.80704">
        <ele>639.89</ele>
        <time>2016-04-10T14:38:31Z</time>
      </trkpt>
      <trkpt lat="45.25568" lon="5.80741">
        <ele>635.09</ele>
        <time>2016-04-10T14:39:01Z</time>
      </trkpt>
      <trkpt lat="45.25559" lon="5.80767">
        <ele>628.84</ele>
        <time>2016-04-10T14:39:31Z</time>
      </trkpt>
      <trkpt lat="45.25528" lon="5.80765">
        <ele>623.07</ele>
        <time>2016-04-10T14:40:01Z</time>
      </trkpt>
      <trkpt lat="45.25492" lon="5.80798">
        <ele>613.94</ele>
        <time>2016-04-10T14:40:31Z</time>
      </trkpt>
      <trkpt lat="45.2549" lon="5.80802">
        <ele>613.94</ele>
        <time>2016-04-10T14:41:01Z</time>
      </trkpt>
      <trkpt lat="45.25477" lon="5.80808">
        <ele>609.61</ele>
        <time>2016-04-10T14:41:31Z</time>
      </trkpt>
      <trkpt lat="45.25452" lon="5.80845">
        <ele>600</ele>
        <time>2016-04-10T14:42:01Z</time>
      </trkpt>
      <trkpt lat="45.25419" lon="5.80907">
        <ele>588.46</ele>
        <time>2016-04-10T14:42:31Z</time>
      </trkpt>
      <trkpt lat="45.25421" lon="5.80954">
        <ele>583.66</ele>
        <time>2016-04-10T14:43:01Z</time>
      </trkpt>
      <trkpt lat="45.25425" lon="5.80954">
        <ele>583.66</ele>
        <time>2016-04-10T14:43:31Z</time>
      </trkpt>
      <trkpt lat="45.25426" lon="5.80953">
        <ele>583.66</ele>
        <time>2016-04-10T14:44:01Z</time>
      </trkpt>
      <trkpt lat="45.25425" lon="5.8097">
        <ele>582.22</ele>
        <time>2016-04-10T14:44:31Z</time>
      </trkpt>
      <trkpt lat="45.25373" lon="5.80966">
        <ele>574.53</ele>
        <time>2016-04-10T14:45:01Z</time>
      </trkpt>
      <trkpt lat="45.25334" lon="5.8096">
        <ele>568.28</ele>
        <time>2016-04-10T14:45:31Z</time>
      </trkpt>
      <trkpt lat="45.25334" lon="5.8096">
        <ele>568.28</ele>
        <time>2016-04-10T14:46:01Z</time>
      </trkpt>
      <trkpt lat="45.25334" lon="5.8096">
        <ele>568.28</ele>
        <time>2016-04-10T14:46:31Z</time>
      </trkpt>
      <trkpt lat="45.25334" lon="5.80963">
        <ele>568.28</ele>
        <time>2016-04-10T14:47:01Z</time>
      </trkpt>
      <trkpt lat="45.25356" lon="5.81033">
        <ele>563.95</ele>
        <time>2016-04-10T14:47:31Z</time>
      </trkpt>
      <trkpt lat="45.25359" lon="5.81096">
        <ele>558.66</ele>
        <time>2016-04-10T14:48:01Z</time>
      </trkpt>
      <trkpt lat="45.25324" lon="5.81116">
        <ele>552.41</ele>
        <time>2016-04-10T14:48:31Z</time>
      </trkpt>
      <trkpt lat="45.25312" lon="5.81132">
        <ele>547.61</ele>
        <time>2016-04-10T14:49:01Z</time>
      </trkpt>
      <trkpt lat="45.25248" lon="5.81245">
        <ele>537.03</ele>
        <time>2016-04-10T14:49:31Z</time>
      </trkpt>
      <trkpt lat="45.25254" lon="5.81352">
        <ele>539.92</ele>
        <time>2016-04-10T14:50:01Z</time>
      </trkpt>
      <trkpt lat="45.25287" lon="5.81448">
        <ele>540.88</ele>
        <time>2016-04-10T14:50:31Z</time>
      </trkpt>
      <trkpt lat="45.25313" lon="5.81484">
        <ele>542.32</ele>
        <time>2016-04-10T14:51:01Z</time>
      </trkpt>
      <trkpt lat="45.25374" lon="5.81573">
        <ele>545.2</ele>
        <time>2016-04-10T14:51:31Z</time>
      </trkpt>
      <trkpt lat="45.25472" lon="5.81775">
        <ele>529.82</ele>
        <time>2016-04-10T14:52:01Z</time>
      </trkpt>
      <trkpt lat="45.25569" lon="5.81899">
        <ele>513</ele>
        <time>2016-04-10T14:52:31Z</time>
      </trkpt>
      <trkpt lat="45.25608" lon="5.81955">
        <ele>511.56</ele>
        <time>2016-04-10T14:53:01Z</time>
      </trkpt>
      <trkpt lat="45.25591" lon="5.81992">
        <ele>506.27</ele>
        <time>2016-04-10T14:53:31Z</time>
      </trkpt>
      <trkpt lat="45.25591" lon="5.81993">
        <ele>506.27</ele>
        <time>2016-04-10T14:54:01Z</time>
      </trkpt>
      <trkpt lat="45.25591" lon="5.81994">
        <ele>506.27</ele>
        <time>2016-04-10T14:54:31Z</time>
      </trkpt>
      <trkpt lat="45.2559" lon="5.81994">
        <ele>505.79</ele>
        <time>2016-04-10T14:55:01Z</time>
      </trkpt>
      <trkpt lat="45.2559" lon="5.81995">
        <ele>505.79</ele>
        <time>2016-04-10T14:55:31Z</time>
      </trkpt>
      <trkpt lat="45.25589" lon="5.81996">
        <ele>505.79</ele>
        <time>2016-04-10T14:56:01Z</time>
      </trkpt>
      <trkpt lat="45.25589" lon="5.81996">
        <ele>505.31</ele>
        <time>2016-04-10T14:56:31Z</time>
      </trkpt>
      <trkpt lat="45.25589" lon="5.81996">
        <ele>504.83</ele>
        <time>2016-04-10T14:57:01Z</time>
      </trkpt>
      <trkpt lat="45.25589" lon="5.81996">
        <ele>504.83</ele>
        <time>2016-04-10T14:57:31Z</time>
      </trkpt>
      <trkpt lat="45.2559" lon="5.81995">
        <ele>504.83</ele>
        <time>2016-04-10T14:58:01Z</time>
      </trkpt>
      <trkpt lat="45.25591" lon="5.81996">
        <ele>504.83</ele>
        <time>2016-04-10T14:58:31Z</time>
      </trkpt>
      <trkpt lat="45.25567" lon="5.82034">
        <ele>500.02</ele>
        <time>2016-04-10T14:59:01Z</time>
      </trkpt>
      <trkpt lat="45.25418" lon="5.82117">
        <ele>475.51</ele>
        <time>2016-04-10T14:59:31Z</time>
      </trkpt>
      <trkpt lat="45.25327" lon="5.82352">
        <ele>448.11</ele>
        <time>2016-04-10T15:00:01Z</time>
      </trkpt>
      <trkpt lat="45.25367" lon="5.82423">
        <ele>443.79</ele>
        <time>2016-04-10T15:00:31Z</time>
      </trkpt>
      <trkpt lat="45.25368" lon="5.82423">
        <ele>443.79</ele>
        <time>2016-04-10T15:01:01Z</time>
      </trkpt>
      <trkpt lat="45.25369" lon="5.82423">
        <ele>443.31</ele>
        <time>2016-04-10T15:01:31Z</time>
      </trkpt>
      <trkpt lat="45.25369" lon="5.82422">
        <ele>443.31</ele>
        <time>2016-04-10T15:02:01Z</time>
      </trkpt>
      <trkpt lat="45.2537" lon="5.82422">
        <ele>443.31</ele>
        <time>2016-04-10T15:02:31Z</time>
      </trkpt>
      <trkpt lat="45.2537" lon="5.82421">
        <ele>442.82</ele>
        <time>2016-04-10T15:03:01Z</time>
      </trkpt>
      <trkpt lat="45.2537" lon="5.82421">
        <ele>442.34</ele>
        <time>2016-04-10T15:03:31Z</time>
      </trkpt>
      <trkpt lat="45.2537" lon="5.8242">
        <ele>442.34</ele>
        <time>2016-04-10T15:04:01Z</time>
      </trkpt>
      <trkpt lat="45.25371" lon="5.82422">
        <ele>442.34</ele>
        <time>2016-04-10T15:04:31Z</time>
      </trkpt>
    </trkseg>
  </trk>
</gpx>